createdAt,value
2022-08-05T00:00:15.986Z,2.50
2022-08-05T00:01:20.707Z,2.90
2022-08-05T00:02:15.773Z,2.80
2022-08-05T00:03:15.675Z,2.60
2022-08-05T00:04:14.686Z,2.90
2022-08-05T00:06:03.301Z,2.80
2022-08-05T00:06:27.876Z,2.90
2022-08-05T00:07:58.710Z,2.70
2022-08-05T00:08:32.561Z,2.40
2022-08-05T00:09:16.038Z,2.60
2022-08-05T00:10:14.608Z,3.10
2022-08-05T00:11:23.879Z,2.60
2022-08-05T00:12:15.599Z,2.80
2022-08-05T00:13:18.681Z,2.70
2022-08-05T00:14:17.092Z,2.80
2022-08-05T00:15:55.374Z,2.80
2022-08-05T00:16:15.558Z,2.70
2022-08-05T00:17:18.715Z,2.60
2022-08-05T00:18:21.555Z,2.80
2022-08-05T00:19:15.519Z,2.70
2022-08-05T00:20:14.468Z,2.70
2022-08-05T00:21:15.457Z,2.90
2022-08-05T00:22:14.448Z,2.80
2022-08-05T00:23:14.462Z,2.70
2022-08-05T00:24:16.061Z,2.70
2022-08-05T00:25:14.409Z,3.10
2022-08-05T00:26:14.420Z,2.70
2022-08-05T00:27:16.894Z,2.80
2022-08-05T00:28:14.379Z,3.00
2022-08-05T00:29:14.380Z,2.60
2022-08-05T00:30:14.347Z,2.60
2022-08-05T00:31:14.360Z,2.60
2022-08-05T00:32:15.712Z,2.90
2022-08-05T00:33:15.678Z,2.90
2022-08-05T00:34:56.987Z,2.90
2022-08-05T00:35:15.279Z,2.80
2022-08-05T00:37:11.754Z,3.00
2022-08-05T00:37:15.273Z,2.80
2022-08-05T00:38:14.266Z,2.90
2022-08-05T00:39:14.456Z,3.20
2022-08-05T00:40:14.210Z,2.90
2022-08-05T00:41:14.202Z,2.70
2022-08-05T00:42:31.787Z,2.90
2022-08-05T00:43:15.344Z,3.20
2022-08-05T00:44:14.205Z,2.70
2022-08-05T00:45:14.200Z,3.10
2022-08-05T00:46:14.150Z,3.00
2022-08-05T00:47:14.110Z,2.80
2022-08-05T00:48:14.119Z,2.90
2022-08-05T00:49:14.129Z,2.80
2022-08-05T00:50:14.096Z,2.80
2022-08-05T00:51:50.443Z,2.90
2022-08-05T00:52:15.061Z,3.00
2022-08-05T00:54:00.765Z,2.80
2022-08-05T00:54:15.021Z,2.90
2022-08-05T00:55:14.019Z,3.20
2022-08-05T00:56:14.021Z,3.00
2022-08-05T00:57:14.001Z,3.10
2022-08-05T00:58:13.994Z,2.90
2022-08-05T00:59:13.961Z,3.20
2022-08-05T01:00:13.940Z,3.10
2022-08-05T01:01:13.994Z,2.90
2022-08-05T01:02:13.921Z,3.00
2022-08-05T01:03:22.930Z,3.10
2022-08-05T01:04:15.792Z,2.80
2022-08-05T01:05:13.894Z,3.40
2022-08-05T01:06:15.236Z,2.60
2022-08-05T01:07:13.970Z,2.90
2022-08-05T01:08:40.996Z,3.00
2022-08-05T01:09:14.821Z,2.90
2022-08-05T01:10:13.831Z,3.30
2022-08-05T01:11:13.878Z,2.80
2022-08-05T01:12:18.819Z,3.20
2022-08-05T01:13:22.439Z,3.10
2022-08-05T01:14:15.422Z,3.00
2022-08-05T01:15:36.034Z,2.80
2022-08-05T01:16:14.732Z,3.10
2022-08-05T01:17:14.773Z,2.90
2022-08-05T01:18:13.741Z,2.90
2022-08-05T01:19:14.377Z,3.30
2022-08-05T01:20:13.683Z,3.00
2022-08-05T01:21:13.661Z,3.20
2022-08-05T01:22:18.872Z,2.90
2022-08-05T01:23:15.530Z,3.00
2022-08-05T01:24:14.633Z,2.90
2022-08-05T01:25:13.755Z,3.00
2022-08-05T01:26:13.602Z,3.20
2022-08-05T01:27:19.505Z,3.00
2022-08-05T01:28:14.583Z,3.10
2022-08-05T01:29:13.554Z,3.30
2022-08-05T01:30:18.670Z,3.30
2022-08-05T01:31:14.524Z,3.20
2022-08-05T01:32:18.378Z,3.20
2022-08-05T01:33:14.515Z,3.30
2022-08-05T01:34:14.497Z,3.30
2022-08-05T01:35:13.486Z,3.00
2022-08-05T01:36:16.219Z,3.20
2022-08-05T01:37:24.741Z,3.10
2022-08-05T01:38:14.562Z,3.10
2022-08-05T01:39:14.470Z,2.90
2022-08-05T01:40:14.423Z,2.90
2022-08-05T01:41:13.394Z,3.10
2022-08-05T01:42:13.738Z,3.30
2022-08-05T01:43:22.068Z,3.00
2022-08-05T01:44:15.331Z,3.00
2022-08-05T01:45:13.353Z,3.20
2022-08-05T01:46:16.255Z,3.30
2022-08-05T01:47:14.327Z,3.30
2022-08-05T01:48:13.332Z,3.30
2022-08-05T01:49:23.840Z,3.20
2022-08-05T01:50:15.696Z,2.90
2022-08-05T01:51:13.283Z,2.90
2022-08-05T01:52:17.922Z,3.50
2022-08-05T01:53:14.244Z,3.10
2022-08-05T01:54:14.233Z,3.00
2022-08-05T01:55:13.222Z,3.30
2022-08-05T01:56:13.221Z,3.20
2022-08-05T01:58:11.871Z,3.10
2022-08-05T01:58:15.641Z,3.30
2022-08-05T01:59:13.153Z,3.30
2022-08-05T02:00:13.188Z,3.60
2022-08-05T02:01:13.141Z,3.20
2022-08-05T02:02:13.183Z,3.10
2022-08-05T02:03:16.343Z,3.20
2022-08-05T02:04:14.098Z,3.80
2022-08-05T02:05:13.083Z,3.10
2022-08-05T02:06:37.191Z,3.40
2022-08-05T02:07:22.030Z,3.70
2022-08-05T02:08:14.046Z,3.30
2022-08-05T02:09:16.323Z,3.10
2022-08-05T02:10:17.488Z,3.40
2022-08-05T02:11:12.994Z,3.10
2022-08-05T02:12:12.985Z,3.00
2022-08-05T02:13:16.324Z,2.90
2022-08-05T02:14:13.110Z,3.00
2022-08-05T02:15:12.967Z,3.30
2022-08-05T02:16:16.298Z,3.00
2022-08-05T02:17:29.948Z,3.40
2022-08-05T02:18:33.084Z,3.00
2022-08-05T02:19:13.916Z,3.00
2022-08-05T02:20:12.883Z,3.00
2022-08-05T02:21:14.717Z,2.70
2022-08-05T02:22:25.422Z,3.20
2022-08-05T02:23:13.847Z,3.20
2022-08-05T02:24:12.835Z,3.20
2022-08-05T02:25:13.805Z,3.10
2022-08-05T02:26:12.795Z,3.30
2022-08-05T02:27:12.787Z,3.30
2022-08-05T02:28:12.804Z,3.30
2022-08-05T02:29:21.622Z,3.00
2022-08-05T02:30:13.745Z,2.90
2022-08-05T02:31:13.851Z,3.00
2022-08-05T02:32:12.725Z,3.20
2022-08-05T02:33:13.726Z,3.40
2022-08-05T02:34:13.706Z,3.40
2022-08-05T02:35:14.279Z,3.20
2022-08-05T02:36:13.270Z,3.20
2022-08-05T02:37:12.666Z,3.20
2022-08-05T02:38:13.321Z,3.00
2022-08-05T02:39:13.836Z,3.20
2022-08-05T02:40:12.616Z,3.20
2022-08-05T02:41:17.255Z,3.20
2022-08-05T02:42:25.950Z,3.40
2022-08-05T02:43:13.585Z,3.30
2022-08-05T02:44:13.478Z,3.90
2022-08-05T02:45:12.545Z,3.50
2022-08-05T02:46:12.546Z,3.50
2022-08-05T02:47:12.516Z,3.50
2022-08-05T02:48:13.030Z,3.00
2022-08-05T02:49:12.506Z,3.00
2022-08-05T02:50:12.476Z,3.00
2022-08-05T02:51:12.459Z,3.10
2022-08-05T02:52:25.897Z,3.10
2022-08-05T02:53:16.131Z,2.90
2022-08-05T02:54:36.170Z,3.00
2022-08-05T02:55:13.457Z,3.10
2022-08-05T02:56:16.102Z,3.00
2022-08-05T02:58:13.424Z,3.00
2022-08-05T02:58:20.177Z,3.00
2022-08-05T02:59:12.357Z,2.90
2022-08-05T03:00:12.378Z,3.60
2022-08-05T03:01:12.357Z,3.30
2022-08-05T03:02:12.346Z,3.00
2022-08-05T03:03:12.316Z,3.20
2022-08-05T03:04:12.943Z,3.20
2022-08-05T03:05:12.275Z,3.40
2022-08-05T03:06:55.568Z,3.90
2022-08-05T03:07:24.687Z,3.40
2022-08-05T03:08:13.513Z,3.00
2022-08-05T03:09:12.229Z,3.20
2022-08-05T03:10:13.395Z,3.30
2022-08-05T03:11:56.655Z,3.20
2022-08-05T03:12:13.197Z,3.30
2022-08-05T03:13:16.545Z,3.00
2022-08-05T03:14:13.299Z,3.40
2022-08-05T03:15:12.357Z,3.20
2022-08-05T03:16:12.135Z,3.10
2022-08-05T03:17:12.116Z,3.40
2022-08-05T03:18:12.114Z,3.10
2022-08-05T03:19:33.046Z,3.10
2022-08-05T03:20:13.593Z,2.70
2022-08-05T03:21:12.097Z,3.00
2022-08-05T03:22:16.686Z,2.90
2022-08-05T03:23:13.028Z,3.20
2022-08-05T03:24:12.016Z,3.00
2022-08-05T03:25:33.974Z,2.80
2022-08-05T03:26:31.716Z,3.00
2022-08-05T03:27:13.019Z,3.10
2022-08-05T03:28:11.999Z,3.30
2022-08-05T03:29:12.419Z,3.30
2022-08-05T03:30:12.938Z,3.00
2022-08-05T03:31:41.479Z,2.90
2022-08-05T03:32:14.456Z,3.10
2022-08-05T03:33:11.927Z,3.10
2022-08-05T03:34:11.887Z,3.10
2022-08-05T03:35:11.877Z,3.20
2022-08-05T03:36:11.874Z,3.30
2022-08-05T03:37:11.868Z,3.10
2022-08-05T03:38:11.871Z,2.90
2022-08-05T03:39:12.991Z,3.20
2022-08-05T03:40:12.861Z,3.50
2022-08-05T03:41:11.812Z,2.90
2022-08-05T03:42:11.827Z,3.30
2022-08-05T03:43:59.219Z,3.20
2022-08-05T03:44:12.762Z,3.30
2022-08-05T03:45:22.124Z,3.00
2022-08-05T03:46:12.726Z,3.00
2022-08-05T03:47:13.641Z,2.90
2022-08-05T03:48:11.717Z,3.10
2022-08-05T03:49:11.688Z,3.00
2022-08-05T03:50:11.701Z,3.10
2022-08-05T03:52:35.276Z,3.10
2022-08-05T03:52:48.404Z,3.00
2022-08-05T03:55:06.917Z,3.20
2022-08-05T03:56:00.722Z,3.50
2022-08-05T03:56:05.325Z,3.30
2022-08-05T03:56:26.948Z,3.50
2022-08-05T03:57:16.541Z,3.00
2022-08-05T03:58:12.569Z,3.30
2022-08-05T03:59:11.580Z,3.40
2022-08-05T04:00:11.539Z,3.40
2022-08-05T04:01:12.864Z,3.90
2022-08-05T04:02:17.281Z,3.40
2022-08-05T04:03:26.653Z,3.70
2022-08-05T04:04:12.486Z,4.20
2022-08-05T04:05:11.477Z,3.00
2022-08-05T04:06:11.470Z,3.10
2022-08-05T04:07:11.469Z,2.90
2022-08-05T04:08:22.471Z,4.10
2022-08-05T04:09:12.421Z,4.80
2022-08-05T04:10:11.427Z,4.00
2022-08-05T04:11:12.413Z,3.80
2022-08-05T04:12:23.430Z,4.50
2022-08-05T04:13:12.371Z,4.70
2022-08-05T04:14:11.354Z,3.70
2022-08-05T04:15:15.463Z,3.70
2022-08-05T04:16:11.400Z,4.40
2022-08-05T04:17:11.410Z,4.20
2022-08-05T04:18:20.225Z,3.70
2022-08-05T04:19:12.308Z,3.60
2022-08-05T04:20:11.292Z,3.30
2022-08-05T04:21:11.298Z,4.00
2022-08-05T04:22:12.313Z,4.30
2022-08-05T04:23:12.594Z,4.40
2022-08-05T04:24:19.733Z,3.70
2022-08-05T04:25:12.220Z,3.50
2022-08-05T04:26:11.228Z,3.20
2022-08-05T04:27:11.189Z,3.20
2022-08-05T04:28:12.813Z,3.10
2022-08-05T04:29:11.192Z,3.00
2022-08-05T04:30:11.154Z,2.90
2022-08-05T04:31:11.130Z,3.10
2022-08-05T04:32:11.120Z,3.20
2022-08-05T04:33:11.129Z,3.30
2022-08-05T04:34:31.710Z,3.00
2022-08-05T04:35:19.623Z,2.90
2022-08-05T04:36:45.753Z,3.20
2022-08-05T04:37:20.030Z,3.20
2022-08-05T04:38:12.040Z,3.30
2022-08-05T04:39:11.045Z,3.10
2022-08-05T04:40:11.018Z,3.60
2022-08-05T04:41:11.019Z,3.60
2022-08-05T04:42:10.973Z,3.40
2022-08-05T04:43:16.653Z,3.30
2022-08-05T04:44:11.988Z,3.60
2022-08-05T04:45:10.951Z,3.20
2022-08-05T04:46:11.949Z,3.40
2022-08-05T04:47:12.071Z,3.50
2022-08-05T04:48:18.398Z,3.40
2022-08-05T04:49:14.517Z,3.50
2022-08-05T04:50:11.667Z,4.10
2022-08-05T04:51:11.529Z,3.60
2022-08-05T04:52:10.849Z,3.80
2022-08-05T04:53:10.832Z,3.60
2022-08-05T04:54:10.861Z,3.60
2022-08-05T04:55:14.581Z,3.40
2022-08-05T04:56:32.832Z,4.00
2022-08-05T04:57:11.783Z,3.80
2022-08-05T04:58:12.421Z,4.30
2022-08-05T04:59:22.288Z,4.20
2022-08-05T05:00:11.737Z,3.80
2022-08-05T05:01:10.801Z,3.20
2022-08-05T05:02:41.360Z,3.60
2022-08-05T05:03:11.762Z,3.90
2022-08-05T05:04:11.690Z,4.20
2022-08-05T05:05:17.030Z,3.80
2022-08-05T05:06:40.197Z,4.10
2022-08-05T05:07:11.650Z,3.60
2022-08-05T05:08:14.100Z,3.80
2022-08-05T05:09:14.366Z,4.20
2022-08-05T05:10:11.610Z,3.70
2022-08-05T05:11:10.621Z,3.70
2022-08-05T05:12:10.587Z,3.90
2022-08-05T05:13:10.572Z,4.00
2022-08-05T05:14:10.570Z,4.00
2022-08-05T05:15:17.333Z,4.30
2022-08-05T05:16:11.540Z,3.60
2022-08-05T05:17:10.522Z,3.60
2022-08-05T05:18:10.530Z,3.50
2022-08-05T05:19:19.515Z,3.30
2022-08-05T05:20:11.540Z,3.20
2022-08-05T05:21:10.484Z,3.10
2022-08-05T05:22:24.049Z,3.10
2022-08-05T05:23:19.910Z,3.00
2022-08-05T05:24:11.431Z,2.90
2022-08-05T05:25:16.086Z,2.90
2022-08-05T05:26:11.421Z,2.80
2022-08-05T05:27:10.391Z,2.70
2022-08-05T05:28:10.383Z,2.90
2022-08-05T05:29:14.691Z,3.10
2022-08-05T05:30:15.315Z,3.00
2022-08-05T05:31:11.352Z,2.80
2022-08-05T05:32:12.579Z,3.00
2022-08-05T05:33:16.868Z,3.20
2022-08-05T05:34:11.319Z,3.30
2022-08-05T05:35:10.272Z,3.50
2022-08-05T05:36:11.263Z,3.00
2022-08-05T05:37:10.241Z,2.90
2022-08-05T05:38:12.720Z,2.90
2022-08-05T05:39:11.050Z,3.00
2022-08-05T05:40:10.232Z,2.80
2022-08-05T05:41:10.212Z,3.20
2022-08-05T05:42:10.183Z,3.30
2022-08-05T05:43:10.195Z,3.20
2022-08-05T05:44:15.756Z,3.40
2022-08-05T05:45:11.155Z,3.10
2022-08-05T05:46:15.824Z,3.30
2022-08-05T05:47:23.555Z,3.10
2022-08-05T05:48:11.171Z,2.90
2022-08-05T05:49:22.456Z,3.10
2022-08-05T05:50:11.145Z,3.20
2022-08-05T05:51:15.273Z,3.00
2022-08-05T05:52:13.311Z,2.90
2022-08-05T05:53:21.409Z,2.60
2022-08-05T05:54:11.524Z,3.00
2022-08-05T05:55:13.570Z,3.30
2022-08-05T05:56:10.036Z,3.40
2022-08-05T05:57:13.542Z,2.40
2022-08-05T05:58:09.993Z,3.20
2022-08-05T05:59:10.015Z,3.10
2022-08-05T06:00:10.229Z,2.80
2022-08-05T06:01:13.382Z,2.80
2022-08-05T06:02:10.933Z,2.70
2022-08-05T06:03:40.624Z,3.00
2022-08-05T06:04:12.012Z,2.60
2022-08-05T06:05:10.432Z,3.10
2022-08-05T06:06:10.897Z,2.90
2022-08-05T06:07:10.646Z,2.80
2022-08-05T06:08:09.878Z,3.30
2022-08-05T06:09:17.710Z,3.00
2022-08-05T06:10:10.846Z,2.90
2022-08-05T06:11:09.856Z,3.00
2022-08-05T06:12:09.875Z,2.60
2022-08-05T06:13:09.809Z,2.70
2022-08-05T06:14:09.799Z,2.70
2022-08-05T06:15:12.403Z,3.00
2022-08-05T06:16:29.707Z,3.00
2022-08-05T06:17:22.253Z,2.70
2022-08-05T06:18:10.721Z,2.40
2022-08-05T06:19:09.761Z,2.70
2022-08-05T06:20:09.768Z,2.80
2022-08-05T06:21:16.572Z,2.70
2022-08-05T06:22:10.669Z,2.50
2022-08-05T06:23:09.652Z,2.60
2022-08-05T06:24:11.800Z,2.50
2022-08-05T06:25:25.269Z,2.60
2022-08-05T06:26:13.857Z,2.70
2022-08-05T06:27:17.085Z,2.60
2022-08-05T06:28:21.427Z,2.50
2022-08-05T06:29:23.565Z,2.50
2022-08-05T06:30:17.664Z,2.80
2022-08-05T06:31:11.275Z,2.60
2022-08-05T06:32:21.468Z,2.70
2022-08-05T06:33:10.676Z,2.80
2022-08-05T06:34:09.537Z,2.60
2022-08-05T06:35:21.776Z,2.50
2022-08-05T06:36:10.524Z,2.60
2022-08-05T06:37:09.483Z,2.70
2022-08-05T06:38:11.666Z,2.20
2022-08-05T06:39:09.510Z,3.00
2022-08-05T06:40:09.466Z,2.60
2022-08-05T06:41:09.434Z,2.60
2022-08-05T06:42:09.424Z,2.40
2022-08-05T06:43:57.867Z,2.50
2022-08-05T06:44:10.386Z,2.50
2022-08-05T06:45:09.629Z,2.70
2022-08-05T06:46:10.376Z,2.50
2022-08-05T06:47:10.330Z,2.80
2022-08-05T06:48:44.335Z,2.40
2022-08-05T06:49:10.342Z,2.60
2022-08-05T06:50:09.305Z,2.60
2022-08-05T06:51:12.044Z,2.50
2022-08-05T06:52:37.391Z,2.60
2022-08-05T06:53:11.713Z,2.60
2022-08-05T06:54:19.041Z,2.50
2022-08-05T06:55:10.257Z,2.70
2022-08-05T06:56:26.112Z,2.90
2022-08-05T06:57:56.636Z,2.60
2022-08-05T06:58:20.594Z,2.30
2022-08-05T06:59:11.983Z,2.40
2022-08-05T07:00:09.853Z,2.50
2022-08-05T07:01:09.239Z,2.40
2022-08-05T07:02:09.172Z,2.60
2022-08-05T07:03:09.775Z,2.70
2022-08-05T07:04:09.141Z,2.90
2022-08-05T07:05:18.499Z,2.20
2022-08-05T07:06:14.389Z,2.50
2022-08-05T07:07:10.232Z,2.60
2022-08-05T07:08:10.986Z,2.50
2022-08-05T07:09:09.079Z,2.40
2022-08-05T07:10:09.081Z,2.50
2022-08-05T07:11:15.550Z,2.40
2022-08-05T07:12:10.050Z,2.70
2022-08-05T07:13:09.020Z,2.40
2022-08-05T07:14:20.553Z,2.80
2022-08-05T07:15:10.020Z,2.60
2022-08-05T07:16:09.010Z,2.30
2022-08-05T07:18:01.317Z,2.30
2022-08-05T07:18:12.586Z,2.30
2022-08-05T07:19:09.967Z,2.40
2022-08-05T07:20:32.421Z,2.40
2022-08-05T07:21:09.922Z,2.40
2022-08-05T07:22:08.921Z,2.40
2022-08-05T07:23:08.882Z,2.50
2022-08-05T07:24:11.335Z,2.60
2022-08-05T07:25:22.834Z,2.20
2022-08-05T07:26:09.873Z,2.50
2022-08-05T07:27:09.040Z,2.40
2022-08-05T07:28:11.606Z,2.30
2022-08-05T07:29:08.845Z,2.40
2022-08-05T07:30:27.677Z,2.30
2022-08-05T07:31:09.822Z,2.40
2022-08-05T07:32:08.795Z,2.30
2022-08-05T07:33:09.382Z,2.70
2022-08-05T07:34:08.790Z,2.60
2022-08-05T07:36:02.995Z,2.50
2022-08-05T07:36:20.335Z,2.50
2022-08-05T07:37:11.742Z,2.30
2022-08-05T07:38:12.425Z,2.50
2022-08-05T07:39:24.629Z,2.50
2022-08-05T07:40:32.048Z,2.60
2022-08-05T07:42:07.407Z,2.40
2022-08-05T07:42:15.106Z,2.20
2022-08-05T07:43:20.510Z,2.40
2022-08-05T07:44:14.523Z,2.00
2022-08-05T07:45:09.620Z,2.70
2022-08-05T07:46:24.215Z,2.20
2022-08-05T07:47:10.177Z,2.60
2022-08-05T07:48:09.566Z,2.40
2022-08-05T07:49:08.550Z,2.40
2022-08-05T07:50:08.554Z,2.30
2022-08-05T07:51:23.765Z,2.60
2022-08-05T07:52:09.627Z,2.70
2022-08-05T07:53:08.525Z,2.80
2022-08-05T07:54:10.018Z,2.40
2022-08-05T07:55:15.861Z,2.70
2022-08-05T07:57:00.202Z,2.70
2022-08-05T07:57:41.529Z,2.50
2022-08-05T07:58:09.749Z,2.80
2022-08-05T07:59:09.430Z,2.70
2022-08-05T08:00:11.352Z,2.30
2022-08-05T08:01:12.332Z,2.30
2022-08-05T08:02:15.575Z,2.30
2022-08-05T08:03:15.150Z,2.60
2022-08-05T08:04:09.401Z,2.50
2022-08-05T08:05:08.399Z,2.60
2022-08-05T08:06:08.407Z,2.40
2022-08-05T08:07:08.327Z,2.30
2022-08-05T08:08:12.450Z,2.20
2022-08-05T08:09:08.318Z,2.30
2022-08-05T08:10:08.322Z,2.00
2022-08-05T08:11:08.783Z,2.50
2022-08-05T08:12:19.040Z,2.40
2022-08-05T08:13:09.269Z,2.40
2022-08-05T08:14:08.251Z,2.80
2022-08-05T08:15:13.981Z,2.60
2022-08-05T08:16:35.841Z,2.40
2022-08-05T08:17:09.193Z,2.30
2022-08-05T08:18:13.864Z,2.50
2022-08-05T08:19:09.219Z,2.10
2022-08-05T08:20:22.605Z,2.20
2022-08-05T08:21:09.696Z,2.40
2022-08-05T08:22:09.207Z,2.50
2022-08-05T08:23:59.863Z,2.60
2022-08-05T08:24:13.560Z,2.00
2022-08-05T08:25:16.137Z,2.40
2022-08-05T08:26:09.103Z,2.30
2022-08-05T08:27:08.094Z,2.20
2022-08-05T08:28:18.213Z,2.50
2022-08-05T08:30:03.779Z,2.60
2022-08-05T08:30:29.810Z,2.60
2022-08-05T08:31:09.028Z,2.70
2022-08-05T08:32:10.824Z,2.20
2022-08-05T08:33:08.204Z,2.40
2022-08-05T08:34:07.994Z,2.30
2022-08-05T08:35:13.452Z,2.50
2022-08-05T08:37:08.950Z,2.70
2022-08-05T08:38:07.964Z,2.50
2022-08-05T08:39:15.123Z,2.30
2022-08-05T08:40:08.928Z,2.20
2022-08-05T08:41:07.911Z,2.30
2022-08-05T08:42:11.055Z,2.30
2022-08-05T08:45:16.088Z,2.50
2022-08-05T08:45:22.763Z,2.70
2022-08-05T08:45:23.662Z,2.30
2022-08-05T08:46:09.862Z,2.40
2022-08-05T08:47:47.487Z,2.10
2022-08-05T08:48:22.580Z,2.70
2022-08-05T08:50:06.048Z,2.30
2022-08-05T08:50:29.821Z,2.30
2022-08-05T08:51:30.655Z,2.40
2022-08-05T08:52:13.502Z,2.60
2022-08-05T08:53:11.971Z,2.50
2022-08-05T08:54:07.760Z,2.50
2022-08-05T08:55:13.219Z,2.80
2022-08-05T08:56:08.719Z,2.60
2022-08-05T08:57:11.435Z,2.50
2022-08-05T08:58:08.682Z,2.90
2022-08-05T08:59:14.744Z,2.40
2022-08-05T09:00:08.673Z,2.60
2022-08-05T09:01:07.726Z,2.70
2022-08-05T09:02:08.668Z,2.60
2022-08-05T09:03:07.629Z,2.40
2022-08-05T09:04:07.709Z,2.30
2022-08-05T09:05:17.883Z,2.40
2022-08-05T09:06:11.575Z,2.60
2022-08-05T09:07:10.668Z,2.60
2022-08-05T09:08:09.739Z,2.60
2022-08-05T09:09:07.576Z,2.20
2022-08-05T09:10:07.561Z,2.20
2022-08-05T09:11:07.541Z,2.90
2022-08-05T09:12:19.982Z,2.60
2022-08-05T09:13:08.499Z,2.40
2022-08-05T09:14:54.095Z,2.60
2022-08-05T09:15:08.486Z,2.40
2022-08-05T09:16:07.453Z,2.60
2022-08-05T09:17:09.443Z,2.60
2022-08-05T09:18:08.783Z,2.60
2022-08-05T09:19:07.505Z,2.20
2022-08-05T09:20:07.568Z,2.70
2022-08-05T09:21:11.615Z,2.30
2022-08-05T09:22:21.799Z,2.60
2022-08-05T09:23:09.518Z,2.40
2022-08-05T09:24:07.397Z,2.90
2022-08-05T09:25:13.510Z,2.40
2022-08-05T09:26:09.212Z,2.80
2022-08-05T09:27:07.355Z,2.50
2022-08-05T09:28:07.364Z,2.40
2022-08-05T09:29:07.317Z,2.20
2022-08-05T09:30:07.285Z,2.40
2022-08-05T09:31:43.339Z,2.40
2022-08-05T09:32:41.513Z,2.40
2022-08-05T09:33:08.259Z,2.20
2022-08-05T09:34:09.824Z,2.60
2022-08-05T09:35:07.226Z,2.60
2022-08-05T09:36:11.771Z,2.60
2022-08-05T09:37:14.968Z,2.40
2022-08-05T09:38:16.535Z,2.60
2022-08-05T09:39:17.959Z,2.70
2022-08-05T09:40:08.227Z,2.50
2022-08-05T09:41:07.161Z,2.60
2022-08-05T09:42:08.439Z,2.70
2022-08-05T09:43:08.370Z,2.30
2022-08-05T09:44:07.118Z,2.50
2022-08-05T09:46:05.015Z,3.10
2022-08-05T09:46:08.864Z,2.80
2022-08-05T09:47:10.393Z,2.40
2022-08-05T09:48:08.070Z,2.30
2022-08-05T09:49:19.493Z,2.40
2022-08-05T09:50:08.332Z,2.50
2022-08-05T09:51:14.976Z,2.10
2022-08-05T09:52:08.080Z,2.40
2022-08-05T09:53:06.991Z,2.40
2022-08-05T09:54:06.992Z,2.60
2022-08-05T09:55:55.636Z,2.40
2022-08-05T09:56:13.270Z,2.50
2022-08-05T09:57:23.198Z,2.60
2022-08-05T09:58:07.935Z,2.30
2022-08-05T09:59:06.941Z,2.50
2022-08-05T10:00:07.878Z,2.10
2022-08-05T10:01:14.821Z,2.30
2022-08-05T10:02:07.888Z,2.90
2022-08-05T10:03:06.932Z,2.70
2022-08-05T10:04:10.413Z,2.60
2022-08-05T10:05:07.984Z,2.50
2022-08-05T10:06:15.532Z,2.90
2022-08-05T10:07:20.741Z,2.90
2022-08-05T10:08:36.917Z,2.80
2022-08-05T10:09:07.852Z,2.60
2022-08-05T10:10:15.555Z,2.60
2022-08-05T10:11:07.789Z,2.80
2022-08-05T10:12:18.774Z,2.30
2022-08-05T10:13:09.905Z,2.50
2022-08-05T10:14:06.742Z,2.30
2022-08-05T10:15:06.753Z,2.20
2022-08-05T10:16:06.713Z,2.50
2022-08-05T10:17:06.694Z,2.60
2022-08-05T10:18:07.711Z,2.60
2022-08-05T10:19:09.167Z,2.30
2022-08-05T10:20:10.070Z,2.90
2022-08-05T10:21:11.756Z,2.50
2022-08-05T10:22:07.694Z,2.80
2022-08-05T10:23:08.962Z,2.60
2022-08-05T10:24:10.669Z,2.50
2022-08-05T10:25:06.649Z,2.30
2022-08-05T10:26:07.121Z,2.20
2022-08-05T10:27:07.560Z,2.20
2022-08-05T10:28:13.510Z,2.50
2022-08-05T10:29:07.575Z,2.30
2022-08-05T10:31:21.048Z,2.30
2022-08-05T10:32:54.652Z,2.20
2022-08-05T10:32:54.654Z,2.20
2022-08-05T10:33:09.260Z,2.30
2022-08-05T10:34:08.146Z,2.40
2022-08-05T10:35:06.472Z,2.40
2022-08-05T10:36:06.459Z,2.20
2022-08-05T10:37:06.447Z,2.40
2022-08-05T10:38:06.437Z,2.60
2022-08-05T10:39:10.279Z,2.40
2022-08-05T10:40:19.465Z,2.90
2022-08-05T10:41:07.486Z,2.70
2022-08-05T10:42:06.385Z,2.60
2022-08-05T10:43:06.368Z,2.20
2022-08-05T10:44:06.372Z,2.30
2022-08-05T10:45:09.607Z,2.40
2022-08-05T10:46:07.333Z,2.60
2022-08-05T10:47:06.319Z,2.90
2022-08-05T10:48:31.421Z,2.60
2022-08-05T10:49:10.135Z,2.50
2022-08-05T10:50:20.877Z,2.30
2022-08-05T10:51:21.777Z,2.60
2022-08-05T10:52:10.532Z,2.40
2022-08-05T10:53:06.269Z,2.40
2022-08-05T10:54:28.227Z,2.50
2022-08-05T10:55:07.220Z,2.20
2022-08-05T10:56:14.906Z,2.60
2022-08-05T10:57:07.192Z,2.40
2022-08-05T10:58:06.180Z,2.80
2022-08-05T10:59:12.465Z,2.70
2022-08-05T11:00:11.033Z,2.60
2022-08-05T11:01:07.153Z,2.40
2022-08-05T11:02:06.153Z,2.80
2022-08-05T11:03:23.424Z,2.50
2022-08-05T11:04:07.143Z,2.70
2022-08-05T11:05:06.114Z,2.80
2022-08-05T11:06:06.082Z,2.60
2022-08-05T11:07:06.072Z,2.70
2022-08-05T11:08:27.659Z,2.70
2022-08-05T11:09:07.053Z,2.70
2022-08-05T11:10:09.962Z,2.80
2022-08-05T11:11:14.577Z,2.30
2022-08-05T11:12:07.003Z,2.50
2022-08-05T11:13:06.024Z,2.60
2022-08-05T11:14:06.066Z,2.30
2022-08-05T11:15:19.427Z,2.40
2022-08-05T11:16:06.953Z,2.50
2022-08-05T11:18:00.087Z,2.30
2022-08-05T11:18:06.936Z,2.20
2022-08-05T11:20:11.337Z,2.80
2022-08-05T11:20:11.399Z,2.40
2022-08-05T11:21:11.597Z,2.20
2022-08-05T11:22:06.885Z,2.10
2022-08-05T11:23:08.933Z,2.50
2022-08-05T11:24:29.757Z,2.50
2022-08-05T11:26:03.409Z,2.50
2022-08-05T11:26:08.567Z,2.50
2022-08-05T11:27:05.826Z,2.30
2022-08-05T11:28:05.807Z,2.30
2022-08-05T11:29:13.345Z,2.40
2022-08-05T11:30:06.797Z,2.50
2022-08-05T11:31:06.551Z,2.20
2022-08-05T11:32:05.784Z,2.30
2022-08-05T11:33:05.757Z,2.40
2022-08-05T11:34:08.202Z,2.50
2022-08-05T11:35:05.748Z,2.50
2022-08-05T11:36:08.170Z,2.50
2022-08-05T11:37:55.145Z,2.60
2022-08-05T11:38:28.356Z,2.50
2022-08-05T11:39:06.739Z,2.70
2022-08-05T11:40:05.724Z,2.80
2022-08-05T11:41:34.611Z,2.70
2022-08-05T11:42:06.646Z,2.60
2022-08-05T11:43:05.619Z,2.70
2022-08-05T11:44:08.328Z,2.50
2022-08-05T11:45:05.670Z,2.70
2022-08-05T11:46:27.365Z,2.50
2022-08-05T11:47:12.054Z,2.80
2022-08-05T11:48:06.589Z,2.70
2022-08-05T11:49:08.060Z,2.80
2022-08-05T11:50:05.543Z,2.70
2022-08-05T11:51:05.520Z,2.70
2022-08-05T11:52:11.475Z,2.60
2022-08-05T11:53:09.973Z,2.60
2022-08-05T11:54:05.533Z,2.50
2022-08-05T11:55:07.453Z,2.60
2022-08-05T11:56:05.525Z,2.70
2022-08-05T11:57:08.131Z,2.60
2022-08-05T11:58:08.146Z,2.50
2022-08-05T11:59:13.600Z,2.40
2022-08-05T12:00:06.452Z,2.90
2022-08-05T12:01:08.500Z,2.60
2022-08-05T12:02:06.391Z,2.70
2022-08-05T12:03:06.401Z,2.40
2022-08-05T12:04:05.372Z,2.70
2022-08-05T12:05:08.112Z,2.70
2022-08-05T12:06:10.003Z,2.40
2022-08-05T12:07:05.326Z,2.40
2022-08-05T12:08:10.799Z,2.80
2022-08-05T12:09:06.322Z,2.40
2022-08-05T12:10:09.425Z,2.70
2022-08-05T12:11:06.449Z,2.60
2022-08-05T12:12:05.263Z,2.50
2022-08-05T12:13:15.811Z,2.40
2022-08-05T12:14:06.311Z,2.40
2022-08-05T12:15:05.246Z,2.30
2022-08-05T12:16:14.252Z,2.50
2022-08-05T12:18:00.530Z,2.30
2022-08-05T12:18:10.585Z,2.60
2022-08-05T12:19:08.139Z,2.60
2022-08-05T12:20:16.815Z,2.60
2022-08-05T12:21:06.162Z,2.50
2022-08-05T12:22:05.136Z,2.50
2022-08-05T12:23:05.148Z,2.90
2022-08-05T12:24:07.034Z,2.50
2022-08-05T12:25:05.097Z,2.70
2022-08-05T12:26:05.113Z,2.40
2022-08-05T12:27:09.898Z,2.60
2022-08-05T12:28:06.077Z,2.50
2022-08-05T12:29:05.073Z,2.70
2022-08-05T12:30:05.036Z,2.50
2022-08-05T12:31:05.051Z,2.50
2022-08-05T12:32:05.034Z,2.70
2022-08-05T12:33:07.165Z,2.50
2022-08-05T12:34:05.988Z,2.50
2022-08-05T12:35:04.978Z,2.60
2022-08-05T12:36:07.035Z,2.70
2022-08-05T12:37:04.958Z,2.50
2022-08-05T12:38:04.951Z,2.40
2022-08-05T12:39:06.856Z,2.20
2022-08-05T12:40:10.396Z,2.60
2022-08-05T12:41:09.670Z,2.30
2022-08-05T12:42:05.900Z,2.50
2022-08-05T12:43:04.900Z,2.40
2022-08-05T12:44:04.859Z,2.30
2022-08-05T12:45:08.935Z,2.50
2022-08-05T12:46:05.862Z,2.30
2022-08-05T12:47:04.841Z,2.50
2022-08-05T12:48:26.850Z,2.50
2022-08-05T12:49:12.942Z,2.30
2022-08-05T12:50:07.202Z,2.30
2022-08-05T12:51:04.790Z,2.50
2022-08-05T12:52:12.321Z,2.30
2022-08-05T12:53:05.761Z,2.40
2022-08-05T12:54:04.739Z,2.40
2022-08-05T12:55:05.732Z,2.50
2022-08-05T12:56:04.729Z,2.50
2022-08-05T12:57:09.645Z,2.40
2022-08-05T12:58:38.830Z,2.20
2022-08-05T12:59:09.396Z,2.30
2022-08-05T13:02:01.519Z,2.20
2022-08-05T13:02:03.287Z,2.50
2022-08-05T13:02:07.666Z,2.50
2022-08-05T13:03:04.665Z,2.20
2022-08-05T13:04:04.624Z,2.40
2022-08-05T13:05:04.624Z,2.20
2022-08-05T13:06:04.592Z,2.20
2022-08-05T13:07:04.584Z,2.40
2022-08-05T13:08:05.988Z,2.10
2022-08-05T13:09:04.554Z,2.00
2022-08-05T13:10:04.534Z,2.50
2022-08-05T13:11:04.580Z,2.20
2022-08-05T13:12:04.515Z,2.50
2022-08-05T13:13:04.527Z,2.40
2022-08-05T13:14:07.708Z,2.30
2022-08-05T13:15:05.655Z,2.10
2022-08-05T13:16:04.463Z,2.10
2022-08-05T13:17:04.457Z,2.00
2022-08-05T13:18:04.483Z,2.10
2022-08-05T13:19:04.436Z,1.90